sensor_id;sensor_type;location;lat;lon;timestamp;pressure;altitude;pressure_sealevel;temperature;humidity
61488;BME280;47351;53.326;-6.298;2024-01-06T00:01:46;101238.40;;;2.84;100.00
61488;BME280;47351;53.326;-6.298;2024-01-06T00:04:35;101245.67;;;2.86;100.00
61488;BME280;47351;53.326;-6.298;2024-01-06T00:07:24;101245.00;;;2.85;100.00
61488;BME280;47351;53.326;-6.298;2024-01-06T00:10:13;101243.83;;;2.84;100.00
61488;BME280;47351;53.326;-6.298;2024-01-06T00:13:05;101248.37;;;2.82;100.00
61488;BME280;47351;53.326;-6.298;2024-01-06T00:15:54;101248.23;;;2.82;100.00
61488;BME280;47351;53.326;-6.298;2024-01-06T00:18:42;101252.91;;;2.83;100.00
61488;BME280;47351;53.326;-6.298;2024-01-06T00:21:31;101251.48;;;2.86;100.00
61488;BME280;47351;53.326;-6.298;2024-01-06T00:24:21;101256.98;;;2.88;100.00
61488;BME280;47351;53.326;-6.298;2024-01-06T00:27:10;101259.23;;;2.92;100.00
61488;BME280;47351;53.326;-6.298;2024-01-06T00:29:59;101258.95;;;2.94;100.00
61488;BME280;47351;53.326;-6.298;2024-01-06T00:32:48;101269.05;;;2.95;100.00
61488;BME280;47351;53.326;-6.298;2024-01-06T00:35:37;101267.24;;;2.96;100.00
61488;BME280;47351;53.326;-6.298;2024-01-06T00:38:26;101272.70;;;2.96;100.00
61488;BME280;47351;53.326;-6.298;2024-01-06T00:41:15;101278.11;;;2.94;100.00
61488;BME280;47351;53.326;-6.298;2024-01-06T00:44:04;101279.33;;;2.92;100.00
61488;BME280;47351;53.326;-6.298;2024-01-06T00:46:52;101279.86;;;2.89;100.00
61488;BME280;47351;53.326;-6.298;2024-01-06T00:49:41;101285.48;;;2.86;100.00
61488;BME280;47351;53.326;-6.298;2024-01-06T00:52:30;101291.42;;;2.84;100.00
61488;BME280;47351;53.326;-6.298;2024-01-06T00:55:19;101291.80;;;2.84;100.00
61488;BME280;47351;53.326;-6.298;2024-01-06T00:58:10;101294.29;;;2.84;100.00
61488;BME280;47351;53.326;-6.298;2024-01-06T01:00:59;101293.66;;;2.83;100.00
61488;BME280;47351;53.326;-6.298;2024-01-06T01:03:48;101294.79;;;2.81;100.00
61488;BME280;47351;53.326;-6.298;2024-01-06T01:06:37;101298.64;;;2.78;100.00
61488;BME280;47351;53.326;-6.298;2024-01-06T01:09:26;101305.91;;;2.75;100.00
61488;BME280;47351;53.326;-6.298;2024-01-06T01:12:15;101313.08;;;2.73;100.00
61488;BME280;47351;53.326;-6.298;2024-01-06T01:15:04;101313.36;;;2.71;100.00
61488;BME280;47351;53.326;-6.298;2024-01-06T01:17:53;101316.61;;;2.70;100.00
61488;BME280;47351;53.326;-6.298;2024-01-06T01:20:41;101317.30;;;2.70;100.00
61488;BME280;47351;53.326;-6.298;2024-01-06T01:23:30;101330.38;;;2.70;100.00
61488;BME280;47351;53.326;-6.298;2024-01-06T01:26:19;101328.09;;;2.69;100.00
61488;BME280;47351;53.326;-6.298;2024-01-06T01:29:07;101327.64;;;2.68;100.00
61488;BME280;47351;53.326;-6.298;2024-01-06T01:31:56;101328.98;;;2.66;100.00
61488;BME280;47351;53.326;-6.298;2024-01-06T01:34:45;101330.74;;;2.63;100.00
61488;BME280;47351;53.326;-6.298;2024-01-06T01:37:34;101334.75;;;2.62;100.00
61488;BME280;47351;53.326;-6.298;2024-01-06T01:40:22;101338.60;;;2.62;100.00
61488;BME280;47351;53.326;-6.298;2024-01-06T01:43:16;101341.80;;;2.64;100.00
61488;BME280;47351;53.326;-6.298;2024-01-06T01:46:05;101341.32;;;2.66;100.00
61488;BME280;47351;53.326;-6.298;2024-01-06T01:48:54;101341.21;;;2.68;100.00
61488;BME280;47351;53.326;-6.298;2024-01-06T01:51:43;101345.10;;;2.68;100.00
61488;BME280;47351;53.326;-6.298;2024-01-06T01:54:35;101344.98;;;2.67;100.00
61488;BME280;47351;53.326;-6.298;2024-01-06T01:57:23;101345.08;;;2.65;100.00
61488;BME280;47351;53.326;-6.298;2024-01-06T02:00:14;101342.82;;;2.62;100.00
61488;BME280;47351;53.326;-6.298;2024-01-06T02:03:03;101347.06;;;2.59;100.00
61488;BME280;47351;53.326;-6.298;2024-01-06T02:05:53;101350.77;;;2.55;100.00
61488;BME280;47351;53.326;-6.298;2024-01-06T02:08:42;101354.95;;;2.54;100.00
61488;BME280;47351;53.326;-6.298;2024-01-06T02:11:30;101355.72;;;2.52;100.00
61488;BME280;47351;53.326;-6.298;2024-01-06T02:14:19;101359.34;;;2.54;100.00
61488;BME280;47351;53.326;-6.298;2024-01-06T02:17:07;101363.76;;;2.57;100.00
61488;BME280;47351;53.326;-6.298;2024-01-06T02:19:56;101366.08;;;2.59;100.00
61488;BME280;47351;53.326;-6.298;2024-01-06T02:22:45;101372.16;;;2.61;100.00
61488;BME280;47351;53.326;-6.298;2024-01-06T02:25:33;101371.63;;;2.61;100.00
61488;BME280;47351;53.326;-6.298;2024-01-06T02:28:23;101379.39;;;2.60;100.00
61488;BME280;47351;53.326;-6.298;2024-01-06T02:31:11;101379.69;;;2.59;100.00
61488;BME280;47351;53.326;-6.298;2024-01-06T02:34:00;101387.95;;;2.55;100.00
61488;BME280;47351;53.326;-6.298;2024-01-06T02:36:49;101385.73;;;2.54;100.00
61488;BME280;47351;53.326;-6.298;2024-01-06T02:39:41;101392.33;;;2.53;100.00
61488;BME280;47351;53.326;-6.298;2024-01-06T02:42:30;101396.60;;;2.52;100.00
61488;BME280;47351;53.326;-6.298;2024-01-06T02:45:19;101403.63;;;2.53;100.00
61488;BME280;47351;53.326;-6.298;2024-01-06T02:48:07;101410.30;;;2.53;100.00
61488;BME280;47351;53.326;-6.298;2024-01-06T02:50:56;101414.56;;;2.53;100.00
61488;BME280;47351;53.326;-6.298;2024-01-06T02:53:45;101420.30;;;2.51;100.00
61488;BME280;47351;53.326;-6.298;2024-01-06T02:56:34;101420.40;;;2.49;100.00
61488;BME280;47351;53.326;-6.298;2024-01-06T02:59:22;101417.04;;;2.47;100.00
61488;BME280;47351;53.326;-6.298;2024-01-06T03:02:11;101415.98;;;2.43;100.00
61488;BME280;47351;53.326;-6.298;2024-01-06T03:05:00;101422.92;;;2.39;100.00
61488;BME280;47351;53.326;-6.298;2024-01-06T03:07:49;101426.86;;;2.35;100.00
61488;BME280;47351;53.326;-6.298;2024-01-06T03:10:38;101427.37;;;2.32;100.00
61488;BME280;47351;53.326;-6.298;2024-01-06T03:13:26;101430.11;;;2.30;100.00
61488;BME280;47351;53.326;-6.298;2024-01-06T03:16:15;101426.34;;;2.28;100.00
61488;BME280;47351;53.326;-6.298;2024-01-06T03:19:03;101425.62;;;2.29;100.00
61488;BME280;47351;53.326;-6.298;2024-01-06T03:21:52;101428.42;;;2.29;100.00
61488;BME280;47351;53.326;-6.298;2024-01-06T03:24:41;101430.16;;;2.29;100.00
61488;BME280;47351;53.326;-6.298;2024-01-06T03:27:30;101430.84;;;2.30;100.00
61488;BME280;47351;53.326;-6.298;2024-01-06T03:30:18;101433.70;;;2.29;100.00
61488;BME280;47351;53.326;-6.298;2024-01-06T03:33:07;101435.56;;;2.27;100.00
61488;BME280;47351;53.326;-6.298;2024-01-06T03:35:56;101434.98;;;2.25;100.00
61488;BME280;47351;53.326;-6.298;2024-01-06T03:38:45;101433.73;;;2.22;100.00
61488;BME280;47351;53.326;-6.298;2024-01-06T03:41:33;101433.42;;;2.18;100.00
61488;BME280;47351;53.326;-6.298;2024-01-06T03:44:22;101439.20;;;2.16;100.00
61488;BME280;47351;53.326;-6.298;2024-01-06T03:47:11;101441.63;;;2.13;100.00
61488;BME280;47351;53.326;-6.298;2024-01-06T03:49:59;101443.80;;;2.13;100.00
61488;BME280;47351;53.326;-6.298;2024-01-06T03:52:48;101447.70;;;2.12;100.00
61488;BME280;47351;53.326;-6.298;2024-01-06T03:55:37;101450.73;;;2.12;100.00
61488;BME280;47351;53.326;-6.298;2024-01-06T03:58:25;101450.28;;;2.13;100.00
61488;BME280;47351;53.326;-6.298;2024-01-06T04:01:14;101454.97;;;2.15;100.00
61488;BME280;47351;53.326;-6.298;2024-01-06T04:04:03;101458.06;;;2.13;100.00
61488;BME280;47351;53.326;-6.298;2024-01-06T04:06:53;101455.20;;;2.10;100.00
61488;BME280;47351;53.326;-6.298;2024-01-06T04:09:42;101455.42;;;2.06;100.00
61488;BME280;47351;53.326;-6.298;2024-01-06T04:12:31;101462.05;;;2.01;100.00
61488;BME280;47351;53.326;-6.298;2024-01-06T04:15:20;101460.21;;;1.96;100.00
61488;BME280;47351;53.326;-6.298;2024-01-06T04:18:08;101465.27;;;1.91;100.00
61488;BME280;47351;53.326;-6.298;2024-01-06T04:20:57;101472.36;;;1.86;100.00
61488;BME280;47351;53.326;-6.298;2024-01-06T04:23:46;101476.30;;;1.81;100.00
61488;BME280;47351;53.326;-6.298;2024-01-06T04:26:35;101477.42;;;1.77;100.00
61488;BME280;47351;53.326;-6.298;2024-01-06T04:29:23;101480.39;;;1.75;100.00
61488;BME280;47351;53.326;-6.298;2024-01-06T04:32:12;101478.72;;;1.73;100.00
61488;BME280;47351;53.326;-6.298;2024-01-06T04:35:01;101484.91;;;1.72;100.00
61488;BME280;47351;53.326;-6.298;2024-01-06T04:37:50;101486.27;;;1.73;100.00
61488;BME280;47351;53.326;-6.298;2024-01-06T04:40:39;101491.22;;;1.76;100.00
61488;BME280;47351;53.326;-6.298;2024-01-06T04:43:27;101493.95;;;1.77;100.00
61488;BME280;47351;53.326;-6.298;2024-01-06T04:46:16;101497.92;;;1.79;100.00
61488;BME280;47351;53.326;-6.298;2024-01-06T04:49:05;101498.05;;;1.80;100.00
61488;BME280;47351;53.326;-6.298;2024-01-06T04:51:53;101500.28;;;1.81;100.00
61488;BME280;47351;53.326;-6.298;2024-01-06T04:54:43;101503.92;;;1.82;100.00
61488;BME280;47351;53.326;-6.298;2024-01-06T04:57:32;101504.93;;;1.83;100.00
61488;BME280;47351;53.326;-6.298;2024-01-06T05:00:21;101509.34;;;1.82;100.00
61488;BME280;47351;53.326;-6.298;2024-01-06T05:03:09;101514.65;;;1.82;100.00
61488;BME280;47351;53.326;-6.298;2024-01-06T05:05:58;101512.93;;;1.81;100.00
61488;BME280;47351;53.326;-6.298;2024-01-06T05:08:47;101518.38;;;1.78;100.00
61488;BME280;47351;53.326;-6.298;2024-01-06T05:11:36;101512.65;;;1.77;100.00
61488;BME280;47351;53.326;-6.298;2024-01-06T05:14:24;101517.05;;;1.77;100.00
61488;BME280;47351;53.326;-6.298;2024-01-06T05:17:13;101521.79;;;1.77;100.00
61488;BME280;47351;53.326;-6.298;2024-01-06T05:20:02;101523.70;;;1.77;100.00
61488;BME280;47351;53.326;-6.298;2024-01-06T05:22:51;101526.86;;;1.78;100.00
61488;BME280;47351;53.326;-6.298;2024-01-06T05:25:40;101519.59;;;1.78;100.00
61488;BME280;47351;53.326;-6.298;2024-01-06T05:28:28;101516.38;;;1.79;100.00
61488;BME280;47351;53.326;-6.298;2024-01-06T05:31:17;101517.61;;;1.79;100.00
61488;BME280;47351;53.326;-6.298;2024-01-06T05:34:06;101525.98;;;1.78;100.00
61488;BME280;47351;53.326;-6.298;2024-01-06T05:36:55;101530.09;;;1.76;100.00
61488;BME280;47351;53.326;-6.298;2024-01-06T05:39:43;101536.67;;;1.75;100.00
61488;BME280;47351;53.326;-6.298;2024-01-06T05:42:32;101537.45;;;1.74;100.00
61488;BME280;47351;53.326;-6.298;2024-01-06T05:45:20;101541.52;;;1.73;100.00
61488;BME280;47351;53.326;-6.298;2024-01-06T05:48:09;101546.81;;;1.73;100.00
61488;BME280;47351;53.326;-6.298;2024-01-06T05:50:58;101546.78;;;1.73;100.00
61488;BME280;47351;53.326;-6.298;2024-01-06T05:53:46;101547.46;;;1.74;100.00
61488;BME280;47351;53.326;-6.298;2024-01-06T05:56:35;101549.91;;;1.74;100.00
61488;BME280;47351;53.326;-6.298;2024-01-06T05:59:24;101555.14;;;1.75;100.00
61488;BME280;47351;53.326;-6.298;2024-01-06T06:02:12;101557.00;;;1.77;100.00
61488;BME280;47351;53.326;-6.298;2024-01-06T06:05:01;101562.59;;;1.77;100.00
61488;BME280;47351;53.326;-6.298;2024-01-06T06:07:50;101568.42;;;1.77;100.00
61488;BME280;47351;53.326;-6.298;2024-01-06T06:10:38;101570.09;;;1.75;100.00
61488;BME280;47351;53.326;-6.298;2024-01-06T06:13:47;101573.73;;;1.73;100.00
61488;BME280;47351;53.326;-6.298;2024-01-06T06:16:36;101577.08;;;1.70;100.00
61488;BME280;47351;53.326;-6.298;2024-01-06T06:19:25;101580.27;;;1.66;100.00
61488;BME280;47351;53.326;-6.298;2024-01-06T06:22:13;101579.92;;;1.62;100.00
61488;BME280;47351;53.326;-6.298;2024-01-06T06:25:02;101586.05;;;1.60;100.00
61488;BME280;47351;53.326;-6.298;2024-01-06T06:27:51;101590.67;;;1.59;100.00
61488;BME280;47351;53.326;-6.298;2024-01-06T06:30:40;101595.76;;;1.59;100.00
61488;BME280;47351;53.326;-6.298;2024-01-06T06:33:29;101598.38;;;1.60;100.00
61488;BME280;47351;53.326;-6.298;2024-01-06T06:36:18;101604.13;;;1.60;100.00
61488;BME280;47351;53.326;-6.298;2024-01-06T06:39:07;101607.70;;;1.63;100.00
61488;BME280;47351;53.326;-6.298;2024-01-06T06:41:57;101614.25;;;1.66;100.00
61488;BME280;47351;53.326;-6.298;2024-01-06T06:44:46;101614.50;;;1.68;100.00
61488;BME280;47351;53.326;-6.298;2024-01-06T06:47:35;101618.39;;;1.71;100.00
61488;BME280;47351;53.326;-6.298;2024-01-06T06:50:23;101620.77;;;1.72;100.00
61488;BME280;47351;53.326;-6.298;2024-01-06T06:53:12;101625.14;;;1.73;100.00
61488;BME280;47351;53.326;-6.298;2024-01-06T06:56:01;101632.56;;;1.72;100.00
61488;BME280;47351;53.326;-6.298;2024-01-06T06:58:50;101634.20;;;1.71;100.00
61488;BME280;47351;53.326;-6.298;2024-01-06T07:01:39;101638.34;;;1.69;100.00
61488;BME280;47351;53.326;-6.298;2024-01-06T07:04:28;101644.94;;;1.68;100.00
61488;BME280;47351;53.326;-6.298;2024-01-06T07:07:16;101648.33;;;1.67;100.00
61488;BME280;47351;53.326;-6.298;2024-01-06T07:10:06;101650.42;;;1.67;100.00
61488;BME280;47351;53.326;-6.298;2024-01-06T07:12:55;101654.28;;;1.68;100.00
61488;BME280;47351;53.326;-6.298;2024-01-06T07:15:43;101652.30;;;1.68;100.00
61488;BME280;47351;53.326;-6.298;2024-01-06T07:18:32;101656.86;;;1.72;100.00
61488;BME280;47351;53.326;-6.298;2024-01-06T07:21:21;101663.63;;;1.74;100.00
61488;BME280;47351;53.326;-6.298;2024-01-06T07:24:11;101665.56;;;1.77;100.00
61488;BME280;47351;53.326;-6.298;2024-01-06T07:26:59;101669.07;;;1.81;100.00
61488;BME280;47351;53.326;-6.298;2024-01-06T07:29:48;101674.64;;;1.82;100.00
61488;BME280;47351;53.326;-6.298;2024-01-06T07:32:36;101677.41;;;1.83;100.00
61488;BME280;47351;53.326;-6.298;2024-01-06T07:35:25;101683.45;;;1.82;100.00
61488;BME280;47351;53.326;-6.298;2024-01-06T07:38:14;101687.66;;;1.79;100.00
61488;BME280;47351;53.326;-6.298;2024-01-06T07:41:03;101694.20;;;1.75;100.00
61488;BME280;47351;53.326;-6.298;2024-01-06T07:43:52;101696.66;;;1.71;100.00
61488;BME280;47351;53.326;-6.298;2024-01-06T07:46:42;101699.56;;;1.70;100.00
61488;BME280;47351;53.326;-6.298;2024-01-06T07:49:30;101703.20;;;1.68;100.00
61488;BME280;47351;53.326;-6.298;2024-01-06T07:52:19;101706.77;;;1.67;100.00
61488;BME280;47351;53.326;-6.298;2024-01-06T07:55:08;101704.84;;;1.66;100.00
61488;BME280;47351;53.326;-6.298;2024-01-06T07:57:57;101710.61;;;1.67;100.00
61488;BME280;47351;53.326;-6.298;2024-01-06T08:00:46;101710.07;;;1.68;100.00
61488;BME280;47351;53.326;-6.298;2024-01-06T08:03:34;101713.06;;;1.68;100.00
61488;BME280;47351;53.326;-6.298;2024-01-06T08:06:23;101713.57;;;1.68;100.00
61488;BME280;47351;53.326;-6.298;2024-01-06T08:09:12;101720.10;;;1.67;100.00
61488;BME280;47351;53.326;-6.298;2024-01-06T08:12:01;101726.68;;;1.66;100.00
61488;BME280;47351;53.326;-6.298;2024-01-06T08:14:50;101735.38;;;1.64;100.00
61488;BME280;47351;53.326;-6.298;2024-01-06T08:17:39;101737.77;;;1.62;100.00
61488;BME280;47351;53.326;-6.298;2024-01-06T08:20:29;101742.95;;;1.60;100.00
61488;BME280;47351;53.326;-6.298;2024-01-06T08:23:17;101747.95;;;1.59;100.00
61488;BME280;47351;53.326;-6.298;2024-01-06T08:26:08;101747.94;;;1.56;100.00
61488;BME280;47351;53.326;-6.298;2024-01-06T08:29:00;101750.38;;;1.53;100.00
61488;BME280;47351;53.326;-6.298;2024-01-06T08:31:49;101755.89;;;1.51;100.00
61488;BME280;47351;53.326;-6.298;2024-01-06T08:34:40;101758.59;;;1.50;100.00
61488;BME280;47351;53.326;-6.298;2024-01-06T08:37:28;101762.97;;;1.50;100.00
61488;BME280;47351;53.326;-6.298;2024-01-06T08:40:17;101768.49;;;1.53;100.00
61488;BME280;47351;53.326;-6.298;2024-01-06T08:43:06;101774.88;;;1.55;100.00
61488;BME280;47351;53.326;-6.298;2024-01-06T08:45:54;101780.89;;;1.58;100.00
61488;BME280;47351;53.326;-6.298;2024-01-06T08:48:43;101788.27;;;1.62;100.00
61488;BME280;47351;53.326;-6.298;2024-01-06T08:51:32;101799.29;;;1.67;100.00
61488;BME280;47351;53.326;-6.298;2024-01-06T08:54:21;101802.30;;;1.70;100.00
61488;BME280;47351;53.326;-6.298;2024-01-06T08:57:09;101804.83;;;1.73;100.00
61488;BME280;47351;53.326;-6.298;2024-01-06T08:59:58;101808.61;;;1.75;100.00
61488;BME280;47351;53.326;-6.298;2024-01-06T09:02:46;101809.96;;;1.75;100.00
61488;BME280;47351;53.326;-6.298;2024-01-06T09:05:35;101812.56;;;1.76;100.00
61488;BME280;47351;53.326;-6.298;2024-01-06T09:08:24;101818.73;;;1.76;100.00
61488;BME280;47351;53.326;-6.298;2024-01-06T09:11:13;101825.42;;;1.76;100.00
61488;BME280;47351;53.326;-6.298;2024-01-06T09:14:01;101833.88;;;1.76;100.00
61488;BME280;47351;53.326;-6.298;2024-01-06T09:16:50;101839.64;;;1.77;100.00
61488;BME280;47351;53.326;-6.298;2024-01-06T09:19:39;101840.55;;;1.80;100.00
61488;BME280;47351;53.326;-6.298;2024-01-06T09:22:28;101842.68;;;1.83;100.00
61488;BME280;47351;53.326;-6.298;2024-01-06T09:25:17;101848.84;;;1.88;100.00
61488;BME280;47351;53.326;-6.298;2024-01-06T09:28:06;101853.74;;;1.92;100.00
61488;BME280;47351;53.326;-6.298;2024-01-06T09:30:54;101855.15;;;1.95;100.00
61488;BME280;47351;53.326;-6.298;2024-01-06T09:33:43;101861.67;;;1.99;100.00
61488;BME280;47351;53.326;-6.298;2024-01-06T09:36:32;101863.23;;;2.03;100.00
61488;BME280;47351;53.326;-6.298;2024-01-06T09:39:20;101871.44;;;2.07;100.00
61488;BME280;47351;53.326;-6.298;2024-01-06T09:42:09;101870.19;;;2.12;100.00
61488;BME280;47351;53.326;-6.298;2024-01-06T09:44:59;101873.35;;;2.15;100.00
61488;BME280;47351;53.326;-6.298;2024-01-06T09:47:48;101876.67;;;2.19;100.00
61488;BME280;47351;53.326;-6.298;2024-01-06T09:50:37;101871.98;;;2.22;100.00
61488;BME280;47351;53.326;-6.298;2024-01-06T09:53:28;101874.52;;;2.23;100.00
61488;BME280;47351;53.326;-6.298;2024-01-06T09:56:17;101872.92;;;2.24;100.00
61488;BME280;47351;53.326;-6.298;2024-01-06T09:59:06;101871.44;;;2.25;100.00
61488;BME280;47351;53.326;-6.298;2024-01-06T10:01:54;101877.98;;;2.28;100.00
61488;BME280;47351;53.326;-6.298;2024-01-06T10:04:43;101881.50;;;2.33;100.00
61488;BME280;47351;53.326;-6.298;2024-01-06T10:07:32;101883.91;;;2.37;100.00
61488;BME280;47351;53.326;-6.298;2024-01-06T10:10:22;101886.11;;;2.42;100.00
61488;BME280;47351;53.326;-6.298;2024-01-06T10:13:12;101894.27;;;2.48;100.00
61488;BME280;47351;53.326;-6.298;2024-01-06T10:16:05;101897.95;;;2.55;100.00
61488;BME280;47351;53.326;-6.298;2024-01-06T10:18:54;101904.46;;;2.63;100.00
61488;BME280;47351;53.326;-6.298;2024-01-06T10:21:43;101900.58;;;2.70;100.00
61488;BME280;47351;53.326;-6.298;2024-01-06T10:24:32;101907.27;;;2.77;100.00
61488;BME280;47351;53.326;-6.298;2024-01-06T10:27:20;101909.04;;;2.84;100.00
61488;BME280;47351;53.326;-6.298;2024-01-06T10:30:10;101911.45;;;2.88;100.00
61488;BME280;47351;53.326;-6.298;2024-01-06T10:32:59;101914.55;;;2.93;100.00
61488;BME280;47351;53.326;-6.298;2024-01-06T10:35:48;101916.35;;;2.96;100.00
61488;BME280;47351;53.326;-6.298;2024-01-06T10:38:37;101922.34;;;2.99;100.00
61488;BME280;47351;53.326;-6.298;2024-01-06T10:41:26;101922.56;;;3.01;100.00
61488;BME280;47351;53.326;-6.298;2024-01-06T10:44:15;101926.09;;;3.05;100.00
61488;BME280;47351;53.326;-6.298;2024-01-06T10:47:04;101929.92;;;3.09;100.00
61488;BME280;47351;53.326;-6.298;2024-01-06T10:49:53;101930.47;;;3.16;100.00
61488;BME280;47351;53.326;-6.298;2024-01-06T10:52:48;101928.86;;;3.23;100.00
61488;BME280;47351;53.326;-6.298;2024-01-06T10:55:37;101934.46;;;3.31;100.00
61488;BME280;47351;53.326;-6.298;2024-01-06T10:58:27;101940.23;;;3.38;100.00
61488;BME280;47351;53.326;-6.298;2024-01-06T11:01:16;101938.80;;;3.45;100.00
61488;BME280;47351;53.326;-6.298;2024-01-06T11:04:09;101941.30;;;3.51;100.00
61488;BME280;47351;53.326;-6.298;2024-01-06T11:06:58;101942.78;;;3.56;100.00
61488;BME280;47351;53.326;-6.298;2024-01-06T11:09:49;101941.61;;;3.59;100.00
61488;BME280;47351;53.326;-6.298;2024-01-06T11:12:39;101943.20;;;3.62;100.00
61488;BME280;47351;53.326;-6.298;2024-01-06T11:15:41;101942.16;;;3.65;100.00
61488;BME280;47351;53.326;-6.298;2024-01-06T11:18:33;101942.66;;;3.68;100.00
61488;BME280;47351;53.326;-6.298;2024-01-06T11:21:23;101947.34;;;3.70;100.00
61488;BME280;47351;53.326;-6.298;2024-01-06T11:24:17;101945.78;;;3.73;100.00
61488;BME280;47351;53.326;-6.298;2024-01-06T11:27:08;101950.05;;;3.79;100.00
61488;BME280;47351;53.326;-6.298;2024-01-06T11:29:57;101953.35;;;3.86;100.00
61488;BME280;47351;53.326;-6.298;2024-01-06T11:32:47;101953.60;;;3.94;100.00
61488;BME280;47351;53.326;-6.298;2024-01-06T11:35:36;101953.68;;;4.03;100.00
61488;BME280;47351;53.326;-6.298;2024-01-06T11:38:25;101952.69;;;4.11;100.00
61488;BME280;47351;53.326;-6.298;2024-01-06T11:41:44;101954.86;;;4.20;100.00
61488;BME280;47351;53.326;-6.298;2024-01-06T11:44:28;101957.33;;;4.29;100.00
61488;BME280;47351;53.326;-6.298;2024-01-06T11:47:17;101959.37;;;4.36;100.00
61488;BME280;47351;53.326;-6.298;2024-01-06T11:50:10;101951.11;;;4.42;100.00
61488;BME280;47351;53.326;-6.298;2024-01-06T11:52:59;101950.30;;;4.49;100.00
61488;BME280;47351;53.326;-6.298;2024-01-06T11:55:49;101953.61;;;4.56;100.00
61488;BME280;47351;53.326;-6.298;2024-01-06T11:58:39;101952.35;;;4.66;100.00
61488;BME280;47351;53.326;-6.298;2024-01-06T12:01:28;101957.00;;;5.27;99.32
61488;BME280;47351;53.326;-6.298;2024-01-06T12:04:27;101944.43;;;7.86;96.37
61488;BME280;47351;53.326;-6.298;2024-01-06T12:07:17;101936.02;;;10.69;92.24
61488;BME280;47351;53.326;-6.298;2024-01-06T12:10:06;101929.19;;;13.11;87.80
61488;BME280;47351;53.326;-6.298;2024-01-06T12:12:56;101924.75;;;15.12;82.80
61488;BME280;47351;53.326;-6.298;2024-01-06T12:15:46;101919.63;;;16.90;78.92
61488;BME280;47351;53.326;-6.298;2024-01-06T12:18:35;101918.41;;;18.33;74.06
61488;BME280;47351;53.326;-6.298;2024-01-06T12:21:24;101908.86;;;19.73;71.18
61488;BME280;47351;53.326;-6.298;2024-01-06T12:24:19;101905.16;;;20.59;65.58
61488;BME280;47351;53.326;-6.298;2024-01-06T12:27:09;101903.90;;;21.33;64.35
61488;BME280;47351;53.326;-6.298;2024-01-06T12:29:58;101905.60;;;22.47;63.83
61488;BME280;47351;53.326;-6.298;2024-01-06T12:32:47;101897.80;;;23.10;59.83
61488;BME280;47351;53.326;-6.298;2024-01-06T12:35:38;101898.56;;;23.69;58.63
61488;BME280;47351;53.326;-6.298;2024-01-06T12:38:27;101905.66;;;22.97;55.53
61488;BME280;47351;53.326;-6.298;2024-01-06T12:41:17;101907.06;;;20.73;54.93
61488;BME280;47351;53.326;-6.298;2024-01-06T12:44:06;101910.82;;;18.80;56.84
61488;BME280;47351;53.326;-6.298;2024-01-06T12:46:55;101912.58;;;17.03;57.03
61488;BME280;47351;53.326;-6.298;2024-01-06T12:49:43;101915.52;;;15.65;59.07
61488;BME280;47351;53.326;-6.298;2024-01-06T12:52:32;101918.18;;;14.84;60.14
61488;BME280;47351;53.326;-6.298;2024-01-06T12:55:21;101920.77;;;14.58;60.73
61488;BME280;47351;53.326;-6.298;2024-01-06T12:58:10;101923.95;;;14.50;60.52
61488;BME280;47351;53.326;-6.298;2024-01-06T13:00:58;101923.54;;;14.45;60.84
61488;BME280;47351;53.326;-6.298;2024-01-06T13:03:47;101918.91;;;14.43;60.60
61488;BME280;47351;53.326;-6.298;2024-01-06T13:06:36;101919.96;;;14.43;60.96
61488;BME280;47351;53.326;-6.298;2024-01-06T13:09:25;101919.67;;;14.53;61.19
61488;BME280;47351;53.326;-6.298;2024-01-06T13:12:14;101913.02;;;14.60;60.74
61488;BME280;47351;53.326;-6.298;2024-01-06T13:15:02;101909.11;;;14.67;60.30
61488;BME280;47351;53.326;-6.298;2024-01-06T13:17:52;101909.79;;;14.64;60.04
61488;BME280;47351;53.326;-6.298;2024-01-06T13:20:41;101907.98;;;14.60;59.89
61488;BME280;47351;53.326;-6.298;2024-01-06T13:23:31;101906.20;;;14.60;60.06
61488;BME280;47351;53.326;-6.298;2024-01-06T13:26:19;101915.14;;;13.84;59.87
61488;BME280;47351;53.326;-6.298;2024-01-06T13:29:08;101922.59;;;12.64;61.27
61488;BME280;47351;53.326;-6.298;2024-01-06T13:31:56;101925.57;;;11.54;62.35
61488;BME280;47351;53.326;-6.298;2024-01-06T13:34:46;101930.38;;;10.56;63.91
61488;BME280;47351;53.326;-6.298;2024-01-06T13:37:35;101931.34;;;9.83;65.98
61488;BME280;47351;53.326;-6.298;2024-01-06T13:40:24;101932.73;;;9.23;67.34
61488;BME280;47351;53.326;-6.298;2024-01-06T13:43:12;101941.33;;;8.66;68.58
61488;BME280;47351;53.326;-6.298;2024-01-06T13:46:02;101947.63;;;8.19;69.95
61488;BME280;47351;53.326;-6.298;2024-01-06T13:48:51;101948.77;;;7.81;71.45
61488;BME280;47351;53.326;-6.298;2024-01-06T13:51:40;101951.79;;;7.51;72.68
61488;BME280;47351;53.326;-6.298;2024-01-06T13:54:29;101953.92;;;7.23;73.62
61488;BME280;47351;53.326;-6.298;2024-01-06T13:57:18;101960.02;;;6.99;74.74
61488;BME280;47351;53.326;-6.298;2024-01-06T14:00:08;101959.64;;;6.81;75.92
61488;BME280;47351;53.326;-6.298;2024-01-06T14:03:01;101961.33;;;6.69;76.91
61488;BME280;47351;53.326;-6.298;2024-01-06T14:05:49;101963.65;;;6.58;77.70
61488;BME280;47351;53.326;-6.298;2024-01-06T14:08:38;101963.95;;;6.48;78.46
61488;BME280;47351;53.326;-6.298;2024-01-06T14:11:28;101969.35;;;6.41;79.16
61488;BME280;47351;53.326;-6.298;2024-01-06T14:14:18;101969.71;;;6.36;79.89
61488;BME280;47351;53.326;-6.298;2024-01-06T14:17:07;101973.17;;;6.32;80.51
61488;BME280;47351;53.326;-6.298;2024-01-06T14:19:55;101976.09;;;6.28;81.20
61488;BME280;47351;53.326;-6.298;2024-01-06T14:22:44;101979.62;;;6.22;81.55
61488;BME280;47351;53.326;-6.298;2024-01-06T14:25:32;101984.05;;;6.17;81.95
61488;BME280;47351;53.326;-6.298;2024-01-06T14:28:21;101987.29;;;6.11;82.35
61488;BME280;47351;53.326;-6.298;2024-01-06T14:31:09;101987.94;;;6.03;82.78
61488;BME280;47351;53.326;-6.298;2024-01-06T14:33:58;101993.99;;;5.97;83.17